sensor_id;sensor_type;location;lat;lon;timestamp;P1;durP1;ratioP1;P2;durP2;ratioP2
24147;SDS011;12309;51.450;-2.624;2023-03-14T00:00:36;8.80;;;1.27;;
24147;SDS011;12309;51.450;-2.624;2023-03-14T00:03:01;8.47;;;1.00;;
24147;SDS011;12309;51.450;-2.624;2023-03-14T00:05:27;11.50;;;1.20;;
24147;SDS011;12309;51.450;-2.624;2023-03-14T00:07:53;8.73;;;1.20;;
24147;SDS011;12309;51.450;-2.624;2023-03-14T00:10:19;9.33;;;1.03;;
24147;SDS011;12309;51.450;-2.624;2023-03-14T00:12:45;8.57;;;1.03;;
24147;SDS011;12309;51.450;-2.624;2023-03-14T00:15:10;8.33;;;1.17;;
24147;SDS011;12309;51.450;-2.624;2023-03-14T00:17:37;5.07;;;0.90;;
24147;SDS011;12309;51.450;-2.624;2023-03-14T00:20:04;8.23;;;1.30;;
24147;SDS011;12309;51.450;-2.624;2023-03-14T00:22:36;5.33;;;1.03;;
24147;SDS011;12309;51.450;-2.624;2023-03-14T00:25:03;5.07;;;1.07;;
24147;SDS011;12309;51.450;-2.624;2023-03-14T00:27:29;8.53;;;1.23;;
24147;SDS011;12309;51.450;-2.624;2023-03-14T00:29:55;8.13;;;1.13;;
24147;SDS011;12309;51.450;-2.624;2023-03-14T00:32:21;4.97;;;1.00;;
24147;SDS011;12309;51.450;-2.624;2023-03-14T00:34:46;7.97;;;1.13;;
24147;SDS011;12309;51.450;-2.624;2023-03-14T00:37:12;7.17;;;1.37;;
24147;SDS011;12309;51.450;-2.624;2023-03-14T00:39:37;11.73;;;1.13;;
24147;SDS011;12309;51.450;-2.624;2023-03-14T00:42:03;9.17;;;1.17;;
24147;SDS011;12309;51.450;-2.624;2023-03-14T00:44:29;5.93;;;0.90;;
24147;SDS011;12309;51.450;-2.624;2023-03-14T00:46:54;4.47;;;1.13;;
24147;SDS011;12309;51.450;-2.624;2023-03-14T00:49:20;13.13;;;1.40;;
24147;SDS011;12309;51.450;-2.624;2023-03-14T00:51:46;5.63;;;1.07;;
24147;SDS011;12309;51.450;-2.624;2023-03-14T00:54:11;12.50;;;1.37;;
24147;SDS011;12309;51.450;-2.624;2023-03-14T00:56:37;9.50;;;1.20;;
24147;SDS011;12309;51.450;-2.624;2023-03-14T00:59:03;9.60;;;1.37;;
24147;SDS011;12309;51.450;-2.624;2023-03-14T01:01:28;4.57;;;1.30;;
24147;SDS011;12309;51.450;-2.624;2023-03-14T01:03:54;14.70;;;1.33;;
24147;SDS011;12309;51.450;-2.624;2023-03-14T01:06:25;17.27;;;1.47;;
24147;SDS011;12309;51.450;-2.624;2023-03-14T01:08:52;13.90;;;1.20;;
24147;SDS011;12309;51.450;-2.624;2023-03-14T01:11:20;9.57;;;1.17;;
24147;SDS011;12309;51.450;-2.624;2023-03-14T01:13:48;10.43;;;1.20;;
24147;SDS011;12309;51.450;-2.624;2023-03-14T01:16:14;8.33;;;0.93;;
24147;SDS011;12309;51.450;-2.624;2023-03-14T01:18:41;5.53;;;1.30;;
24147;SDS011;12309;51.450;-2.624;2023-03-14T01:21:28;10.10;;;1.20;;
24147;SDS011;12309;51.450;-2.624;2023-03-14T01:23:58;5.30;;;1.20;;
24147;SDS011;12309;51.450;-2.624;2023-03-14T01:26:26;6.30;;;1.13;;
24147;SDS011;12309;51.450;-2.624;2023-03-14T01:28:54;8.30;;;1.50;;
24147;SDS011;12309;51.450;-2.624;2023-03-14T01:31:20;8.53;;;1.07;;
24147;SDS011;12309;51.450;-2.624;2023-03-14T01:33:46;7.00;;;1.00;;
24147;SDS011;12309;51.450;-2.624;2023-03-14T01:36:12;10.13;;;1.00;;
24147;SDS011;12309;51.450;-2.624;2023-03-14T01:38:38;6.63;;;1.10;;
24147;SDS011;12309;51.450;-2.624;2023-03-14T01:41:05;8.73;;;1.23;;
24147;SDS011;12309;51.450;-2.624;2023-03-14T01:43:31;10.17;;;1.10;;
24147;SDS011;12309;51.450;-2.624;2023-03-14T01:51:09;10.17;;;1.27;;
24147;SDS011;12309;51.450;-2.624;2023-03-14T01:53:43;6.43;;;1.10;;
24147;SDS011;12309;51.450;-2.624;2023-03-14T01:56:10;14.47;;;1.37;;
24147;SDS011;12309;51.450;-2.624;2023-03-14T01:58:38;11.87;;;1.50;;
24147;SDS011;12309;51.450;-2.624;2023-03-14T02:01:08;7.20;;;1.20;;
24147;SDS011;12309;51.450;-2.624;2023-03-14T02:03:36;11.47;;;1.17;;
24147;SDS011;12309;51.450;-2.624;2023-03-14T02:06:11;10.03;;;1.40;;
24147;SDS011;12309;51.450;-2.624;2023-03-14T02:08:39;15.40;;;1.50;;
24147;SDS011;12309;51.450;-2.624;2023-03-14T02:11:05;11.07;;;1.33;;
24147;SDS011;12309;51.450;-2.624;2023-03-14T02:13:32;9.13;;;1.40;;
24147;SDS011;12309;51.450;-2.624;2023-03-14T02:15:58;9.33;;;1.53;;
24147;SDS011;12309;51.450;-2.624;2023-03-14T02:18:23;10.23;;;1.50;;
24147;SDS011;12309;51.450;-2.624;2023-03-14T02:20:56;12.57;;;1.53;;
24147;SDS011;12309;51.450;-2.624;2023-03-14T02:26:06;16.17;;;1.77;;
24147;SDS011;12309;51.450;-2.624;2023-03-14T02:28:40;9.37;;;1.33;;
24147;SDS011;12309;51.450;-2.624;2023-03-14T02:31:06;21.23;;;1.73;;
24147;SDS011;12309;51.450;-2.624;2023-03-14T02:33:33;10.33;;;1.20;;
24147;SDS011;12309;51.450;-2.624;2023-03-14T02:36:03;13.23;;;1.77;;
24147;SDS011;12309;51.450;-2.624;2023-03-14T02:41:17;9.50;;;1.33;;
24147;SDS011;12309;51.450;-2.624;2023-03-14T02:43:42;13.13;;;1.63;;
24147;SDS011;12309;51.450;-2.624;2023-03-14T02:46:16;11.80;;;1.47;;
24147;SDS011;12309;51.450;-2.624;2023-03-14T02:48:48;7.40;;;1.37;;
24147;SDS011;12309;51.450;-2.624;2023-03-14T02:51:18;10.53;;;1.60;;
24147;SDS011;12309;51.450;-2.624;2023-03-14T02:53:46;14.53;;;1.67;;
24147;SDS011;12309;51.450;-2.624;2023-03-14T02:56:11;13.33;;;1.70;;
24147;SDS011;12309;51.450;-2.624;2023-03-14T02:58:37;13.33;;;1.57;;
24147;SDS011;12309;51.450;-2.624;2023-03-14T03:01:03;10.93;;;1.17;;
24147;SDS011;12309;51.450;-2.624;2023-03-14T03:03:28;16.57;;;1.70;;
24147;SDS011;12309;51.450;-2.624;2023-03-14T03:05:55;12.93;;;1.40;;
24147;SDS011;12309;51.450;-2.624;2023-03-14T03:08:22;9.90;;;1.07;;
24147;SDS011;12309;51.450;-2.624;2023-03-14T03:10:49;9.13;;;1.37;;
24147;SDS011;12309;51.450;-2.624;2023-03-14T03:13:15;8.97;;;1.37;;
24147;SDS011;12309;51.450;-2.624;2023-03-14T03:15:41;10.07;;;1.50;;
24147;SDS011;12309;51.450;-2.624;2023-03-14T03:18:08;12.33;;;1.67;;
24147;SDS011;12309;51.450;-2.624;2023-03-14T03:20:34;8.37;;;0.97;;
24147;SDS011;12309;51.450;-2.624;2023-03-14T03:22:59;14.03;;;1.53;;
24147;SDS011;12309;51.450;-2.624;2023-03-14T03:25:26;11.80;;;1.37;;
24147;SDS011;12309;51.450;-2.624;2023-03-14T03:27:52;6.70;;;1.50;;
24147;SDS011;12309;51.450;-2.624;2023-03-14T03:30:18;15.10;;;1.53;;
24147;SDS011;12309;51.450;-2.624;2023-03-14T03:32:43;11.33;;;1.53;;
24147;SDS011;12309;51.450;-2.624;2023-03-14T03:35:09;14.17;;;1.17;;
24147;SDS011;12309;51.450;-2.624;2023-03-14T03:37:35;12.23;;;1.50;;
24147;SDS011;12309;51.450;-2.624;2023-03-14T03:40:01;5.47;;;1.20;;
24147;SDS011;12309;51.450;-2.624;2023-03-14T03:42:30;11.17;;;1.60;;
24147;SDS011;12309;51.450;-2.624;2023-03-14T03:44:57;7.30;;;1.13;;
24147;SDS011;12309;51.450;-2.624;2023-03-14T03:47:22;9.97;;;1.47;;
24147;SDS011;12309;51.450;-2.624;2023-03-14T03:49:48;8.90;;;1.40;;
24147;SDS011;12309;51.450;-2.624;2023-03-14T03:52:14;12.73;;;1.73;;
24147;SDS011;12309;51.450;-2.624;2023-03-14T03:54:40;6.57;;;1.10;;
24147;SDS011;12309;51.450;-2.624;2023-03-14T03:57:05;16.90;;;1.70;;
24147;SDS011;12309;51.450;-2.624;2023-03-14T03:59:31;10.53;;;1.47;;
24147;SDS011;12309;51.450;-2.624;2023-03-14T04:01:57;13.50;;;1.70;;
24147;SDS011;12309;51.450;-2.624;2023-03-14T04:04:23;10.73;;;1.57;;
24147;SDS011;12309;51.450;-2.624;2023-03-14T04:06:48;9.63;;;1.40;;
24147;SDS011;12309;51.450;-2.624;2023-03-14T04:09:14;10.07;;;1.30;;
24147;SDS011;12309;51.450;-2.624;2023-03-14T04:11:40;13.47;;;1.20;;
24147;SDS011;12309;51.450;-2.624;2023-03-14T04:14:06;9.03;;;1.67;;
24147;SDS011;12309;51.450;-2.624;2023-03-14T04:16:32;10.20;;;1.10;;
24147;SDS011;12309;51.450;-2.624;2023-03-14T04:18:58;12.20;;;1.53;;
24147;SDS011;12309;51.450;-2.624;2023-03-14T04:21:23;12.77;;;1.70;;
24147;SDS011;12309;51.450;-2.624;2023-03-14T04:23:49;10.57;;;1.43;;
24147;SDS011;12309;51.450;-2.624;2023-03-14T04:26:15;12.40;;;1.20;;
24147;SDS011;12309;51.450;-2.624;2023-03-14T04:28:41;6.40;;;1.03;;
24147;SDS011;12309;51.450;-2.624;2023-03-14T04:31:08;9.57;;;1.63;;
24147;SDS011;12309;51.450;-2.624;2023-03-14T04:33:34;9.63;;;1.17;;
24147;SDS011;12309;51.450;-2.624;2023-03-14T04:36:02;7.03;;;1.40;;
24147;SDS011;12309;51.450;-2.624;2023-03-14T04:38:28;11.50;;;1.13;;
24147;SDS011;12309;51.450;-2.624;2023-03-14T04:40:54;9.43;;;1.20;;
24147;SDS011;12309;51.450;-2.624;2023-03-14T04:43:19;3.97;;;0.93;;
24147;SDS011;12309;51.450;-2.624;2023-03-14T04:45:45;12.30;;;1.40;;
24147;SDS011;12309;51.450;-2.624;2023-03-14T04:48:11;10.33;;;1.83;;
24147;SDS011;12309;51.450;-2.624;2023-03-14T04:50:37;12.17;;;1.30;;
24147;SDS011;12309;51.450;-2.624;2023-03-14T04:53:03;12.77;;;1.20;;
24147;SDS011;12309;51.450;-2.624;2023-03-14T04:55:29;8.80;;;1.67;;
24147;SDS011;12309;51.450;-2.624;2023-03-14T04:57:57;13.03;;;1.60;;
24147;SDS011;12309;51.450;-2.624;2023-03-14T05:00:23;6.93;;;1.13;;
24147;SDS011;12309;51.450;-2.624;2023-03-14T05:02:48;4.03;;;1.10;;
24147;SDS011;12309;51.450;-2.624;2023-03-14T05:05:14;12.23;;;1.80;;
24147;SDS011;12309;51.450;-2.624;2023-03-14T05:07:40;8.43;;;1.50;;
24147;SDS011;12309;51.450;-2.624;2023-03-14T05:10:06;9.17;;;1.43;;
24147;SDS011;12309;51.450;-2.624;2023-03-14T05:12:32;10.77;;;1.33;;
24147;SDS011;12309;51.450;-2.624;2023-03-14T05:14:57;9.43;;;1.23;;
24147;SDS011;12309;51.450;-2.624;2023-03-14T05:17:23;14.30;;;1.80;;
24147;SDS011;12309;51.450;-2.624;2023-03-14T05:19:48;11.47;;;1.67;;
24147;SDS011;12309;51.450;-2.624;2023-03-14T05:22:14;13.87;;;1.47;;
24147;SDS011;12309;51.450;-2.624;2023-03-14T05:24:40;16.43;;;1.90;;
24147;SDS011;12309;51.450;-2.624;2023-03-14T05:27:06;17.10;;;1.53;;
24147;SDS011;12309;51.450;-2.624;2023-03-14T05:29:32;10.63;;;1.50;;
24147;SDS011;12309;51.450;-2.624;2023-03-14T05:31:58;5.13;;;1.03;;
24147;SDS011;12309;51.450;-2.624;2023-03-14T05:34:23;11.73;;;1.30;;
24147;SDS011;12309;51.450;-2.624;2023-03-14T05:36:49;10.27;;;1.40;;
24147;SDS011;12309;51.450;-2.624;2023-03-14T05:39:14;7.67;;;1.33;;
24147;SDS011;12309;51.450;-2.624;2023-03-14T05:41:40;8.27;;;1.13;;
24147;SDS011;12309;51.450;-2.624;2023-03-14T05:44:05;7.63;;;1.03;;
24147;SDS011;12309;51.450;-2.624;2023-03-14T05:46:31;8.40;;;1.40;;
24147;SDS011;12309;51.450;-2.624;2023-03-14T05:48:57;9.20;;;1.40;;
24147;SDS011;12309;51.450;-2.624;2023-03-14T05:51:23;12.57;;;1.13;;
24147;SDS011;12309;51.450;-2.624;2023-03-14T05:53:49;10.07;;;1.27;;
24147;SDS011;12309;51.450;-2.624;2023-03-14T05:56:15;8.90;;;1.10;;
24147;SDS011;12309;51.450;-2.624;2023-03-14T05:58:40;11.77;;;1.53;;
24147;SDS011;12309;51.450;-2.624;2023-03-14T06:01:06;11.77;;;1.60;;
24147;SDS011;12309;51.450;-2.624;2023-03-14T06:03:33;9.90;;;1.27;;
24147;SDS011;12309;51.450;-2.624;2023-03-14T06:05:59;9.93;;;1.30;;
24147;SDS011;12309;51.450;-2.624;2023-03-14T06:08:24;9.97;;;1.30;;
24147;SDS011;12309;51.450;-2.624;2023-03-14T06:10:50;9.83;;;1.37;;
24147;SDS011;12309;51.450;-2.624;2023-03-14T06:13:16;13.57;;;1.77;;
24147;SDS011;12309;51.450;-2.624;2023-03-14T06:15:42;9.47;;;1.53;;
24147;SDS011;12309;51.450;-2.624;2023-03-14T06:18:08;7.20;;;1.00;;
24147;SDS011;12309;51.450;-2.624;2023-03-14T06:20:36;6.30;;;1.20;;
24147;SDS011;12309;51.450;-2.624;2023-03-14T06:23:04;15.70;;;2.00;;
24147;SDS011;12309;51.450;-2.624;2023-03-14T06:25:30;14.30;;;1.20;;
24147;SDS011;12309;51.450;-2.624;2023-03-14T06:27:56;7.40;;;1.50;;
24147;SDS011;12309;51.450;-2.624;2023-03-14T06:30:22;6.00;;;1.20;;
24147;SDS011;12309;51.450;-2.624;2023-03-14T06:32:48;12.00;;;1.47;;
24147;SDS011;12309;51.450;-2.624;2023-03-14T06:35:13;10.47;;;1.70;;
24147;SDS011;12309;51.450;-2.624;2023-03-14T06:37:39;15.20;;;1.40;;
24147;SDS011;12309;51.450;-2.624;2023-03-14T06:40:05;7.20;;;1.53;;
24147;SDS011;12309;51.450;-2.624;2023-03-14T06:42:32;7.70;;;1.30;;
24147;SDS011;12309;51.450;-2.624;2023-03-14T06:44:58;11.77;;;1.57;;
24147;SDS011;12309;51.450;-2.624;2023-03-14T06:47:23;7.33;;;1.40;;
24147;SDS011;12309;51.450;-2.624;2023-03-14T06:49:49;6.73;;;1.10;;
24147;SDS011;12309;51.450;-2.624;2023-03-14T06:52:15;6.67;;;1.07;;
24147;SDS011;12309;51.450;-2.624;2023-03-14T06:54:40;8.13;;;1.20;;
24147;SDS011;12309;51.450;-2.624;2023-03-14T06:57:06;10.43;;;1.20;;
24147;SDS011;12309;51.450;-2.624;2023-03-14T06:59:32;9.47;;;1.80;;
24147;SDS011;12309;51.450;-2.624;2023-03-14T07:01:58;8.17;;;1.53;;
24147;SDS011;12309;51.450;-2.624;2023-03-14T07:04:23;9.67;;;1.10;;
24147;SDS011;12309;51.450;-2.624;2023-03-14T07:06:49;9.33;;;1.10;;
24147;SDS011;12309;51.450;-2.624;2023-03-14T07:09:15;16.77;;;1.30;;
24147;SDS011;12309;51.450;-2.624;2023-03-14T07:11:42;11.23;;;1.57;;
24147;SDS011;12309;51.450;-2.624;2023-03-14T07:14:08;6.03;;;0.87;;
24147;SDS011;12309;51.450;-2.624;2023-03-14T07:16:34;11.43;;;1.67;;
24147;SDS011;12309;51.450;-2.624;2023-03-14T07:19:00;9.30;;;1.13;;
24147;SDS011;12309;51.450;-2.624;2023-03-14T07:21:26;9.27;;;1.50;;
24147;SDS011;12309;51.450;-2.624;2023-03-14T07:23:51;10.77;;;1.40;;
24147;SDS011;12309;51.450;-2.624;2023-03-14T07:26:17;10.77;;;1.23;;
24147;SDS011;12309;51.450;-2.624;2023-03-14T07:28:43;12.97;;;1.10;;
24147;SDS011;12309;51.450;-2.624;2023-03-14T07:31:09;8.67;;;1.10;;
24147;SDS011;12309;51.450;-2.624;2023-03-14T07:33:34;10.67;;;1.07;;
24147;SDS011;12309;51.450;-2.624;2023-03-14T07:36:00;11.80;;;1.40;;
24147;SDS011;12309;51.450;-2.624;2023-03-14T07:38:26;10.40;;;1.40;;
24147;SDS011;12309;51.450;-2.624;2023-03-14T07:40:59;13.43;;;1.47;;
24147;SDS011;12309;51.450;-2.624;2023-03-14T07:43:25;6.50;;;1.33;;
24147;SDS011;12309;51.450;-2.624;2023-03-14T07:45:51;8.00;;;1.20;;
24147;SDS011;12309;51.450;-2.624;2023-03-14T07:48:17;13.27;;;0.93;;
24147;SDS011;12309;51.450;-2.624;2023-03-14T07:50:43;19.70;;;1.30;;
24147;SDS011;12309;51.450;-2.624;2023-03-14T07:53:08;6.60;;;0.90;;
24147;SDS011;12309;51.450;-2.624;2023-03-14T07:55:34;10.57;;;1.63;;
24147;SDS011;12309;51.450;-2.624;2023-03-14T07:58:00;7.73;;;1.23;;
24147;SDS011;12309;51.450;-2.624;2023-03-14T08:00:26;8.43;;;1.00;;
24147;SDS011;12309;51.450;-2.624;2023-03-14T08:02:52;5.63;;;0.70;;
24147;SDS011;12309;51.450;-2.624;2023-03-14T08:05:17;11.30;;;1.37;;
24147;SDS011;12309;51.450;-2.624;2023-03-14T08:07:43;3.57;;;0.87;;
24147;SDS011;12309;51.450;-2.624;2023-03-14T08:10:09;8.70;;;1.17;;
24147;SDS011;12309;51.450;-2.624;2023-03-14T08:12:35;6.10;;;1.10;;
24147;SDS011;12309;51.450;-2.624;2023-03-14T08:15:00;3.67;;;1.03;;
24147;SDS011;12309;51.450;-2.624;2023-03-14T08:17:27;5.73;;;1.40;;
24147;SDS011;12309;51.450;-2.624;2023-03-14T08:19:52;3.73;;;0.93;;
24147;SDS011;12309;51.450;-2.624;2023-03-14T08:22:18;11.77;;;1.10;;
24147;SDS011;12309;51.450;-2.624;2023-03-14T08:24:43;3.33;;;1.00;;
24147;SDS011;12309;51.450;-2.624;2023-03-14T08:27:09;3.13;;;0.80;;
24147;SDS011;12309;51.450;-2.624;2023-03-14T08:29:35;4.77;;;0.97;;
24147;SDS011;12309;51.450;-2.624;2023-03-14T08:32:01;5.80;;;1.10;;
24147;SDS011;12309;51.450;-2.624;2023-03-14T08:34:26;5.27;;;0.80;;
24147;SDS011;12309;51.450;-2.624;2023-03-14T08:36:52;8.77;;;1.10;;
24147;SDS011;12309;51.450;-2.624;2023-03-14T08:39:20;8.23;;;1.17;;
24147;SDS011;12309;51.450;-2.624;2023-03-14T08:41:46;8.83;;;1.17;;
24147;SDS011;12309;51.450;-2.624;2023-03-14T08:44:11;10.60;;;0.87;;
24147;SDS011;12309;51.450;-2.624;2023-03-14T08:46:37;3.97;;;0.80;;
24147;SDS011;12309;51.450;-2.624;2023-03-14T08:49:03;5.03;;;0.90;;
24147;SDS011;12309;51.450;-2.624;2023-03-14T08:51:28;4.20;;;0.77;;
24147;SDS011;12309;51.450;-2.624;2023-03-14T08:53:54;3.93;;;0.60;;
24147;SDS011;12309;51.450;-2.624;2023-03-14T08:56:20;3.10;;;1.00;;
24147;SDS011;12309;51.450;-2.624;2023-03-14T08:58:46;2.20;;;0.80;;
24147;SDS011;12309;51.450;-2.624;2023-03-14T09:01:11;1.10;;;0.60;;
24147;SDS011;12309;51.450;-2.624;2023-03-14T09:03:37;2.57;;;0.77;;
24147;SDS011;12309;51.450;-2.624;2023-03-14T09:06:04;2.83;;;0.70;;
24147;SDS011;12309;51.450;-2.624;2023-03-14T09:08:34;4.93;;;0.67;;
24147;SDS011;12309;51.450;-2.624;2023-03-14T09:11:01;1.57;;;0.50;;
24147;SDS011;12309;51.450;-2.624;2023-03-14T09:13:26;4.00;;;0.60;;
24147;SDS011;12309;51.450;-2.624;2023-03-14T09:15:55;2.30;;;0.70;;
24147;SDS011;12309;51.450;-2.624;2023-03-14T09:18:21;1.23;;;0.50;;
24147;SDS011;12309;51.450;-2.624;2023-03-14T09:20:47;0.83;;;0.50;;
24147;SDS011;12309;51.450;-2.624;2023-03-14T09:23:13;4.57;;;0.60;;
24147;SDS011;12309;51.450;-2.624;2023-03-14T09:25:39;2.00;;;0.53;;
24147;SDS011;12309;51.450;-2.624;2023-03-14T09:28:05;1.40;;;0.60;;
24147;SDS011;12309;51.450;-2.624;2023-03-14T09:30:31;0.73;;;0.50;;
24147;SDS011;12309;51.450;-2.624;2023-03-14T09:32:57;1.03;;;0.60;;
24147;SDS011;12309;51.450;-2.624;2023-03-14T09:35:23;3.27;;;0.60;;
24147;SDS011;12309;51.450;-2.624;2023-03-14T09:37:49;1.13;;;0.80;;
24147;SDS011;12309;51.450;-2.624;2023-03-14T09:40:16;0.50;;;0.50;;
24147;SDS011;12309;51.450;-2.624;2023-03-14T09:42:43;1.10;;;0.50;;
24147;SDS011;12309;51.450;-2.624;2023-03-14T09:48:05;0.53;;;0.50;;
24147;SDS011;12309;51.450;-2.624;2023-03-14T09:50:37;1.33;;;0.47;;
24147;SDS011;12309;51.450;-2.624;2023-03-14T09:53:08;1.27;;;0.60;;
24147;SDS011;12309;51.450;-2.624;2023-03-14T09:55:37;2.80;;;0.60;;
24147;SDS011;12309;51.450;-2.624;2023-03-14T09:58:08;1.17;;;0.57;;
24147;SDS011;12309;51.450;-2.624;2023-03-14T10:00:36;0.80;;;0.50;;
24147;SDS011;12309;51.450;-2.624;2023-03-14T10:05:37;1.37;;;0.53;;
24147;SDS011;12309;51.450;-2.624;2023-03-14T10:08:03;3.67;;;0.50;;
24147;SDS011;12309;51.450;-2.624;2023-03-14T10:10:29;1.75;;;0.40;;
24147;SDS011;12309;51.450;-2.624;2023-03-14T10:13:15;1.20;;;0.32;;
24147;SDS011;12309;51.450;-2.624;2023-03-14T10:15:41;0.57;;;0.30;;
24147;SDS011;12309;51.450;-2.624;2023-03-14T10:18:13;1.65;;;0.47;;
24147;SDS011;12309;51.450;-2.624;2023-03-14T10:20:41;1.25;;;0.20;;
24147;SDS011;12309;51.450;-2.624;2023-03-14T10:25:38;1.33;;;0.30;;
24147;SDS011;12309;51.450;-2.624;2023-03-14T10:28:51;1.07;;;0.30;;
24147;SDS011;12309;51.450;-2.624;2023-03-14T10:30:59;3.30;;;0.30;;
24147;SDS011;12309;51.450;-2.624;2023-03-14T10:33:26;0.60;;;0.20;;
24147;SDS011;12309;51.450;-2.624;2023-03-14T10:35:55;1.90;;;0.40;;
24147;SDS011;12309;51.450;-2.624;2023-03-14T10:38:26;0.67;;;0.30;;
24147;SDS011;12309;51.450;-2.624;2023-03-14T10:40:53;4.43;;;0.70;;
24147;SDS011;12309;51.450;-2.624;2023-03-14T10:43:26;1.57;;;0.30;;
24147;SDS011;12309;51.450;-2.624;2023-03-14T10:48:37;0.87;;;0.30;;
24147;SDS011;12309;51.450;-2.624;2023-03-14T10:56:14;0.70;;;0.30;;
24147;SDS011;12309;51.450;-2.624;2023-03-14T10:58:45;0.63;;;0.20;;
24147;SDS011;12309;51.450;-2.624;2023-03-14T11:03:52;1.90;;;0.37;;
24147;SDS011;12309;51.450;-2.624;2023-03-14T11:06:24;1.13;;;0.20;;
24147;SDS011;12309;51.450;-2.624;2023-03-14T11:11:56;0.77;;;0.20;;
24147;SDS011;12309;51.450;-2.624;2023-03-14T11:14:46;0.97;;;0.30;;
24147;SDS011;12309;51.450;-2.624;2023-03-14T11:17:23;0.17;;;0.15;;
24147;SDS011;12309;51.450;-2.624;2023-03-14T11:30:55;1.20;;;0.50;;
24147;SDS011;12309;51.450;-2.624;2023-03-14T11:33:37;0.93;;;0.40;;
24147;SDS011;12309;51.450;-2.624;2023-03-14T11:36:15;3.65;;;0.43;;
24147;SDS011;12309;51.450;-2.624;2023-03-14T11:38:49;1.25;;;0.40;;
24147;SDS011;12309;51.450;-2.624;2023-03-14T11:41:22;2.35;;;0.50;;
24147;SDS011;12309;51.450;-2.624;2023-03-14T11:43:56;1.58;;;0.47;;
24147;SDS011;12309;51.450;-2.624;2023-03-14T11:46:23;3.10;;;0.68;;
24147;SDS011;12309;51.450;-2.624;2023-03-14T11:48:55;6.63;;;1.20;;
24147;SDS011;12309;51.450;-2.624;2023-03-14T11:51:38;2.15;;;0.50;;
24147;SDS011;12309;51.450;-2.624;2023-03-14T11:57:03;3.05;;;0.60;;
24147;SDS011;12309;51.450;-2.624;2023-03-14T12:00:17;1.08;;;0.43;;
24147;SDS011;12309;51.450;-2.624;2023-03-14T12:10:38;2.13;;;0.70;;
24147;SDS011;12309;51.450;-2.624;2023-03-14T12:13:35;3.53;;;1.02;;
24147;SDS011;12309;51.450;-2.624;2023-03-14T12:16:45;2.20;;;0.70;;
24147;SDS011;12309;51.450;-2.624;2023-03-14T12:18:57;1.65;;;0.52;;
24147;SDS011;12309;51.450;-2.624;2023-03-14T12:21:48;1.50;;;0.60;;
24147;SDS011;12309;51.450;-2.624;2023-03-14T12:24:19;3.88;;;0.93;;
24147;SDS011;12309;51.450;-2.624;2023-03-14T12:26:57;2.13;;;0.57;;
24147;SDS011;12309;51.450;-2.624;2023-03-14T12:29:25;3.17;;;0.93;;
24147;SDS011;12309;51.450;-2.624;2023-03-14T12:34:42;2.08;;;0.70;;
24147;SDS011;12309;51.450;-2.624;2023-03-14T12:39:58;1.92;;;0.80;;
24147;SDS011;12309;51.450;-2.624;2023-03-14T12:42:37;6.53;;;1.35;;
24147;SDS011;12309;51.450;-2.624;2023-03-14T12:47:55;3.08;;;1.00;;
24147;SDS011;12309;51.450;-2.624;2023-03-14T12:50:24;5.63;;;1.20;;
24147;SDS011;12309;51.450;-2.624;2023-03-14T12:56:02;3.63;;;0.73;;
24147;SDS011;12309;51.450;-2.624;2023-03-14T13:01:27;4.07;;;1.00;;
24147;SDS011;12309;51.450;-2.624;2023-03-14T13:03:54;6.75;;;1.05;;
24147;SDS011;12309;51.450;-2.624;2023-03-14T13:10:16;2.88;;;0.77;;
24147;SDS011;12309;51.450;-2.624;2023-03-14T13:12:23;2.63;;;0.80;;
24147;SDS011;12309;51.450;-2.624;2023-03-14T13:14:52;5.88;;;1.17;;
24147;SDS011;12309;51.450;-2.624;2023-03-14T13:17:32;5.43;;;0.90;;
24147;SDS011;12309;51.450;-2.624;2023-03-14T13:20:04;6.30;;;1.20;;
24147;SDS011;12309;51.450;-2.624;2023-03-14T13:22:37;10.05;;;1.23;;
24147;SDS011;12309;51.450;-2.624;2023-03-14T13:25:05;4.05;;;0.98;;
24147;SDS011;12309;51.450;-2.624;2023-03-14T13:27:33;3.58;;;1.00;;
24147;SDS011;12309;51.450;-2.624;2023-03-14T13:30:05;2.47;;;0.90;;
24147;SDS011;12309;51.450;-2.624;2023-03-14T13:32:46;3.92;;;1.00;;
24147;SDS011;12309;51.450;-2.624;2023-03-14T13:35:16;4.15;;;1.17;;
24147;SDS011;12309;51.450;-2.624;2023-03-14T13:37:44;5.95;;;1.40;;
24147;SDS011;12309;51.450;-2.624;2023-03-14T13:40:20;6.53;;;1.20;;
24147;SDS011;12309;51.450;-2.624;2023-03-14T13:42:59;5.05;;;1.23;;
24147;SDS011;12309;51.450;-2.624;2023-03-14T13:45:49;8.20;;;1.25;;
24147;SDS011;12309;51.450;-2.624;2023-03-14T13:48:17;3.58;;;1.20;;
24147;SDS011;12309;51.450;-2.624;2023-03-14T13:50:51;6.55;;;1.48;;
24147;SDS011;12309;51.450;-2.624;2023-03-14T13:53:18;3.35;;;0.95;;
24147;SDS011;12309;51.450;-2.624;2023-03-14T13:55:44;7.78;;;1.58;;
24147;SDS011;12309;51.450;-2.624;2023-03-14T13:58:20;6.90;;;1.40;;
24147;SDS011;12309;51.450;-2.624;2023-03-14T14:00:54;5.38;;;1.55;;
24147;SDS011;12309;51.450;-2.624;2023-03-14T14:03:26;9.98;;;1.67;;
24147;SDS011;12309;51.450;-2.624;2023-03-14T14:05:54;9.52;;;1.83;;
24147;SDS011;12309;51.450;-2.624;2023-03-14T14:08:21;11.63;;;2.10;;
24147;SDS011;12309;51.450;-2.624;2023-03-14T14:10:47;7.15;;;1.63;;
24147;SDS011;12309;51.450;-2.624;2023-03-14T14:13:15;13.07;;;1.75;;
24147;SDS011;12309;51.450;-2.624;2023-03-14T14:15:46;10.07;;;1.70;;
24147;SDS011;12309;51.450;-2.624;2023-03-14T14:18:16;9.80;;;1.60;;
24147;SDS011;12309;51.450;-2.624;2023-03-14T14:20:46;10.15;;;1.52;;
24147;SDS011;12309;51.450;-2.624;2023-03-14T14:23:22;9.70;;;1.73;;
24147;SDS011;12309;51.450;-2.624;2023-03-14T14:25:54;6.30;;;1.25;;
24147;SDS011;12309;51.450;-2.624;2023-03-14T14:38:58;9.27;;;1.63;;
24147;SDS011;12309;51.450;-2.624;2023-03-14T14:41:35;8.95;;;1.67;;
24147;SDS011;12309;51.450;-2.624;2023-03-14T14:44:06;11.88;;;1.65;;
24147;SDS011;12309;51.450;-2.624;2023-03-14T14:46:33;13.35;;;2.40;;
24147;SDS011;12309;51.450;-2.624;2023-03-14T14:49:05;14.57;;;2.03;;
24147;SDS011;12309;51.450;-2.624;2023-03-14T14:51:47;10.48;;;1.80;;
24147;SDS011;12309;51.450;-2.624;2023-03-14T14:54:18;7.35;;;1.42;;
24147;SDS011;12309;51.450;-2.624;2023-03-14T14:57:01;17.15;;;2.35;;
24147;SDS011;12309;51.450;-2.624;2023-03-14T14:59:28;8.95;;;2.15;;
24147;SDS011;12309;51.450;-2.624;2023-03-14T15:02:00;11.82;;;2.22;;
24147;SDS011;12309;51.450;-2.624;2023-03-14T15:04:29;11.50;;;1.70;;
24147;SDS011;12309;51.450;-2.624;2023-03-14T15:06:56;10.10;;;1.98;;
24147;SDS011;12309;51.450;-2.624;2023-03-14T15:09:22;8.73;;;1.83;;
24147;SDS011;12309;51.450;-2.624;2023-03-14T15:11:48;9.55;;;1.58;;
24147;SDS011;12309;51.450;-2.624;2023-03-14T15:14:14;13.43;;;1.60;;
24147;SDS011;12309;51.450;-2.624;2023-03-14T15:16:40;7.20;;;1.30;;
24147;SDS011;12309;51.450;-2.624;2023-03-14T15:19:15;11.77;;;1.58;;
24147;SDS011;12309;51.450;-2.624;2023-03-14T15:21:51;10.82;;;1.80;;
24147;SDS011;12309;51.450;-2.624;2023-03-14T15:24:18;13.35;;;1.85;;
24147;SDS011;12309;51.450;-2.624;2023-03-14T15:26:43;5.82;;;1.10;;
24147;SDS011;12309;51.450;-2.624;2023-03-14T15:29:09;2.75;;;0.80;;
24147;SDS011;12309;51.450;-2.624;2023-03-14T15:31:37;6.90;;;1.58;;
24147;SDS011;12309;51.450;-2.624;2023-03-14T15:34:04;8.93;;;1.42;;
24147;SDS011;12309;51.450;-2.624;2023-03-14T15:36:30;8.57;;;1.70;;
24147;SDS011;12309;51.450;-2.624;2023-03-14T15:38:58;13.63;;;2.83;;
24147;SDS011;12309;51.450;-2.624;2023-03-14T15:41:24;10.65;;;1.65;;
24147;SDS011;12309;51.450;-2.624;2023-03-14T15:43:51;7.80;;;1.92;;
24147;SDS011;12309;51.450;-2.624;2023-03-14T15:46:17;10.30;;;2.30;;
24147;SDS011;12309;51.450;-2.624;2023-03-14T15:48:43;11.57;;;2.22;;
24147;SDS011;12309;51.450;-2.624;2023-03-14T15:51:10;13.40;;;1.90;;
24147;SDS011;12309;51.450;-2.624;2023-03-14T15:53:35;11.70;;;1.75;;
24147;SDS011;12309;51.450;-2.624;2023-03-14T15:56:02;11.93;;;1.92;;
24147;SDS011;12309;51.450;-2.624;2023-03-14T15:58:32;9.90;;;2.03;;